createdAt,value
2017-11-12T00:00:57.694Z,13.00
2017-11-12T00:03:23.991Z,12.77
2017-11-12T00:05:50.319Z,12.23
2017-11-12T00:08:16.625Z,13.37
2017-11-12T00:10:42.952Z,12.00
2017-11-12T00:13:09.294Z,13.37
2017-11-12T00:15:35.609Z,13.00
2017-11-12T00:18:01.935Z,14.40
2017-11-12T00:20:29.027Z,13.70
2017-11-12T00:22:55.356Z,14.47
2017-11-12T00:25:21.689Z,12.77
2017-11-12T00:27:48.045Z,13.80
2017-11-12T00:30:14.350Z,14.93
2017-11-12T00:32:40.663Z,15.20
2017-11-12T00:35:06.955Z,14.63
2017-11-12T00:37:33.319Z,14.33
2017-11-12T00:39:59.632Z,13.83
2017-11-12T00:42:26.013Z,13.43
2017-11-12T00:44:52.291Z,14.67
2017-11-12T00:47:18.621Z,14.23
2017-11-12T00:49:44.945Z,14.73
2017-11-12T00:52:11.986Z,13.40
2017-11-12T00:54:39.186Z,13.30
2017-11-12T00:57:05.494Z,11.47
2017-11-12T00:59:31.768Z,13.40
2017-11-12T01:01:58.167Z,12.03
2017-11-12T01:04:24.483Z,12.77
2017-11-12T01:06:50.784Z,12.80
2017-11-12T01:09:17.856Z,13.13
2017-11-12T01:11:44.133Z,13.33
2017-11-12T01:14:10.473Z,11.73
2017-11-12T01:16:36.793Z,12.90
2017-11-12T01:19:03.117Z,13.10
2017-11-12T01:21:29.462Z,12.63
2017-11-12T01:23:55.818Z,12.73
2017-11-12T01:26:23.004Z,13.73
2017-11-12T01:28:49.310Z,13.87
2017-11-12T01:31:15.590Z,13.70
2017-11-12T01:33:41.876Z,13.63
2017-11-12T01:36:08.173Z,13.93
2017-11-12T01:38:35.274Z,12.37
2017-11-12T01:41:01.563Z,13.10
2017-11-12T01:43:28.613Z,13.60
2017-11-12T01:45:55.680Z,12.37
2017-11-12T01:48:22.038Z,13.10
2017-11-12T01:50:48.624Z,13.43
2017-11-12T01:53:15.665Z,13.40
2017-11-12T01:55:42.754Z,14.50
2017-11-12T01:58:09.081Z,12.93
2017-11-12T02:00:35.393Z,13.03
2017-11-12T02:03:01.722Z,13.70
2017-11-12T02:05:28.066Z,13.03
2017-11-12T02:07:54.392Z,13.00
2017-11-12T02:10:20.741Z,12.40
2017-11-12T02:12:47.056Z,11.47
2017-11-12T02:15:13.357Z,10.83
2017-11-12T02:17:40.466Z,12.17
2017-11-12T02:20:06.760Z,11.97
2017-11-12T02:22:33.075Z,11.50
2017-11-12T02:24:59.627Z,11.60
2017-11-12T02:27:25.922Z,11.70
2017-11-12T02:29:52.298Z,11.80
2017-11-12T02:32:18.632Z,12.00
2017-11-12T02:34:44.926Z,10.53
2017-11-12T02:37:11.954Z,11.93
2017-11-12T02:39:38.280Z,10.80
2017-11-12T02:42:05.359Z,10.23
2017-11-12T02:44:32.407Z,10.70
2017-11-12T02:46:59.446Z,11.13
2017-11-12T02:49:26.470Z,11.83
2017-11-12T02:51:52.909Z,13.03
2017-11-12T02:54:19.204Z,10.00
2017-11-12T02:56:45.521Z,12.00
2017-11-12T02:59:11.825Z,13.20
2017-11-12T03:01:38.882Z,11.83
2017-11-12T03:04:05.165Z,11.47
2017-11-12T03:06:31.449Z,11.80
2017-11-12T03:08:57.777Z,10.50
2017-11-12T03:11:24.254Z,10.70
2017-11-12T03:13:50.581Z,10.83
2017-11-12T03:16:18.465Z,11.47
2017-11-12T03:18:44.752Z,11.40
2017-11-12T03:21:11.085Z,11.37
2017-11-12T03:23:37.399Z,12.50
2017-11-12T03:26:03.686Z,11.97
2017-11-12T03:28:29.989Z,11.90
2017-11-12T03:30:56.303Z,11.70
2017-11-12T03:33:22.617Z,11.70
2017-11-12T03:35:48.931Z,11.27
2017-11-12T03:38:15.196Z,12.20
2017-11-12T03:40:41.526Z,11.13
2017-11-12T03:43:07.818Z,11.37
2017-11-12T03:45:34.862Z,12.47
2017-11-12T03:48:01.935Z,13.50
2017-11-12T03:50:28.205Z,10.87
2017-11-12T03:52:54.495Z,12.53
2017-11-12T03:55:20.803Z,12.63
2017-11-12T03:57:47.104Z,12.63
2017-11-12T04:00:13.381Z,13.47
2017-11-12T04:02:39.709Z,13.27
2017-11-12T04:05:06.009Z,14.97
2017-11-12T04:07:33.061Z,12.83
2017-11-12T04:10:00.145Z,14.20
2017-11-12T04:12:26.473Z,13.73
2017-11-12T04:14:52.782Z,14.13
2017-11-12T04:17:19.121Z,13.80
2017-11-12T04:19:45.429Z,13.87
2017-11-12T04:22:12.484Z,13.27
2017-11-12T04:24:39.553Z,14.00
2017-11-12T04:27:05.870Z,12.93
2017-11-12T04:29:32.281Z,12.77
2017-11-12T04:31:59.346Z,16.27
2017-11-12T04:34:25.665Z,15.27
2017-11-12T04:36:52.718Z,14.77
2017-11-12T04:39:19.798Z,15.80
2017-11-12T04:41:46.104Z,14.17
2017-11-12T04:44:12.392Z,15.30
2017-11-12T04:46:38.747Z,15.50
2017-11-12T04:49:05.821Z,14.97
2017-11-12T04:51:32.162Z,14.90
2017-11-12T04:53:58.486Z,15.10
2017-11-12T04:56:24.802Z,13.90
2017-11-12T04:58:51.130Z,14.47
2017-11-12T05:01:17.420Z,14.33
2017-11-12T05:03:43.708Z,15.10
2017-11-12T05:06:09.994Z,14.97
2017-11-12T05:08:37.053Z,14.47
2017-11-12T05:11:04.098Z,14.63
2017-11-12T05:13:31.137Z,14.93
2017-11-12T05:15:58.197Z,13.50
2017-11-12T05:18:25.257Z,15.90
2017-11-12T05:20:51.570Z,13.97
2017-11-12T05:23:18.754Z,15.17
2017-11-12T05:25:45.055Z,15.23
2017-11-12T05:28:12.094Z,15.00
2017-11-12T05:30:39.230Z,14.60
2017-11-12T05:33:05.523Z,13.20
2017-11-12T05:35:31.897Z,13.90
2017-11-12T05:37:59.028Z,15.20
2017-11-12T05:40:25.303Z,15.43
2017-11-12T05:42:51.628Z,13.60
2017-11-12T05:45:18.637Z,15.20
2017-11-12T05:47:44.929Z,15.20
2017-11-12T05:50:11.243Z,15.17
2017-11-12T05:52:37.521Z,14.30
2017-11-12T05:55:04.070Z,14.50
2017-11-12T05:57:30.431Z,12.90
2017-11-12T05:59:56.741Z,13.00
2017-11-12T06:02:24.017Z,15.40
2017-11-12T06:04:50.297Z,12.37
2017-11-12T06:07:16.756Z,14.17
2017-11-12T06:09:44.001Z,13.37
2017-11-12T06:12:10.362Z,13.47
2017-11-12T06:14:36.646Z,11.97
2017-11-12T06:17:02.972Z,13.07
2017-11-12T06:19:29.270Z,14.47
2017-11-12T06:21:55.606Z,12.07
2017-11-12T06:24:21.918Z,11.87
2017-11-12T06:26:48.254Z,12.43
2017-11-12T06:29:14.615Z,12.17
2017-11-12T06:31:40.941Z,11.73
2017-11-12T06:34:07.245Z,13.97
2017-11-12T06:36:33.535Z,13.23
2017-11-12T06:38:59.860Z,12.80
2017-11-12T06:41:26.142Z,13.30
2017-11-12T06:43:52.591Z,13.27
2017-11-12T06:46:19.091Z,13.50
2017-11-12T06:48:45.395Z,12.50
2017-11-12T06:51:11.697Z,14.13
2017-11-12T06:53:38.016Z,14.30
2017-11-12T06:56:04.533Z,14.53
2017-11-12T06:58:30.851Z,13.23
2017-11-12T07:00:57.183Z,14.10
2017-11-12T07:03:23.469Z,14.03
2017-11-12T07:05:49.781Z,14.73
2017-11-12T07:08:16.093Z,12.80
2017-11-12T07:10:42.415Z,14.77
2017-11-12T07:13:08.854Z,14.43
2017-11-12T07:15:35.149Z,14.10
2017-11-12T07:18:02.306Z,14.63
2017-11-12T07:20:28.793Z,15.77
2017-11-12T07:22:55.118Z,15.50
2017-11-12T07:25:21.422Z,14.50
2017-11-12T07:27:47.727Z,16.40
2017-11-12T07:30:14.052Z,15.47
2017-11-12T07:32:40.398Z,13.40
2017-11-12T07:35:06.681Z,13.93
2017-11-12T07:37:33.031Z,15.37
2017-11-12T07:40:00.094Z,14.30
2017-11-12T07:42:26.576Z,14.43
2017-11-12T07:44:52.937Z,15.80
2017-11-12T07:47:19.327Z,15.33
2017-11-12T07:49:45.927Z,14.53
2017-11-12T07:52:12.232Z,15.60
2017-11-12T07:54:38.592Z,14.10
2017-11-12T07:57:12.060Z,15.13
2017-11-12T07:59:38.376Z,14.40
2017-11-12T08:02:04.697Z,14.77
2017-11-12T08:04:31.015Z,16.27
2017-11-12T08:06:57.345Z,14.90
2017-11-12T08:09:23.739Z,14.80
2017-11-12T08:11:50.794Z,14.77
2017-11-12T08:14:17.125Z,14.53
2017-11-12T08:16:43.438Z,13.13
2017-11-12T08:19:10.514Z,14.37
2017-11-12T08:21:36.833Z,14.73
2017-11-12T08:24:03.174Z,14.03
2017-11-12T08:26:29.494Z,13.87
2017-11-12T08:28:55.827Z,14.23
2017-11-12T08:31:22.173Z,13.47
2017-11-12T08:33:48.528Z,12.67
2017-11-12T08:36:14.820Z,13.10
2017-11-12T08:38:41.110Z,14.90
2017-11-12T08:41:07.474Z,14.17
2017-11-12T08:43:33.775Z,13.83
2017-11-12T08:46:00.982Z,14.13
2017-11-12T08:48:27.296Z,14.07
2017-11-12T08:50:53.708Z,13.60
2017-11-12T08:53:20.000Z,14.43
2017-11-12T08:55:46.324Z,15.50
2017-11-12T08:58:12.634Z,14.40
2017-11-12T09:00:40.901Z,14.60
2017-11-12T09:03:07.247Z,14.37
2017-11-12T09:05:33.579Z,15.07
2017-11-12T09:07:59.970Z,17.12
2017-11-12T09:10:26.286Z,16.77
2017-11-12T09:12:53.392Z,14.90
2017-11-12T09:15:19.711Z,15.47
2017-11-12T09:17:46.134Z,15.90
2017-11-12T09:20:12.473Z,14.40
2017-11-12T09:22:38.801Z,15.30
2017-11-12T09:25:05.124Z,14.50
2017-11-12T09:27:31.437Z,15.90
2017-11-12T09:29:57.872Z,15.23
2017-11-12T09:32:24.196Z,16.60
2017-11-12T09:34:50.559Z,15.70
2017-11-12T09:37:16.903Z,16.03
2017-11-12T09:39:43.303Z,15.53
2017-11-12T09:42:09.633Z,13.53
2017-11-12T09:44:35.995Z,14.70
2017-11-12T09:47:02.337Z,15.67
2017-11-12T09:49:28.654Z,15.57
2017-11-12T09:51:55.002Z,15.50
2017-11-12T09:54:21.347Z,15.27
2017-11-12T09:56:48.424Z,15.90
2017-11-12T09:59:14.748Z,15.80
2017-11-12T10:01:41.089Z,15.87
2017-11-12T10:04:07.417Z,15.53
2017-11-12T10:06:33.711Z,17.90
2017-11-12T10:09:00.030Z,19.00
2017-11-12T10:11:29.286Z,17.00
2017-11-12T10:13:55.578Z,17.50
2017-11-12T10:16:22.693Z,17.33
2017-11-12T10:18:48.998Z,17.53
2017-11-12T10:21:15.354Z,17.00
2017-11-12T10:23:41.693Z,19.53
2017-11-12T10:26:08.036Z,17.50
2017-11-12T10:28:34.343Z,20.43
2017-11-12T10:31:00.714Z,15.93
2017-11-12T10:33:28.903Z,14.20
2017-11-12T10:35:55.227Z,14.63
2017-11-12T10:38:22.317Z,12.93
2017-11-12T10:40:48.641Z,13.37
2017-11-12T10:43:14.970Z,14.00
2017-11-12T10:45:41.585Z,13.73
2017-11-12T10:48:08.033Z,14.83
2017-11-12T10:50:34.379Z,15.07
2017-11-12T10:53:00.850Z,13.80
2017-11-12T10:55:27.146Z,10.43
2017-11-12T10:57:53.454Z,12.30
2017-11-12T11:00:19.799Z,10.80
2017-11-12T11:02:46.111Z,11.37
2017-11-12T11:05:12.483Z,6.80
2017-11-12T11:07:39.067Z,6.47
2017-11-12T11:10:05.627Z,7.03
2017-11-12T11:12:31.922Z,6.60
2017-11-12T11:14:59.049Z,7.00
2017-11-12T11:17:26.290Z,6.97
2017-11-12T11:19:52.570Z,7.17
2017-11-12T11:22:18.883Z,5.43
2017-11-12T11:24:45.942Z,7.07
2017-11-12T11:27:12.456Z,6.70
2017-11-12T11:29:39.521Z,7.60
2017-11-12T11:32:05.838Z,8.80
2017-11-12T11:34:32.928Z,9.70
2017-11-12T11:36:59.263Z,9.07
2017-11-12T11:39:25.581Z,11.00
2017-11-12T11:41:51.851Z,11.20
2017-11-12T11:44:18.206Z,7.70
2017-11-12T11:46:45.255Z,7.90
2017-11-12T11:49:12.352Z,7.40
2017-11-12T11:51:38.706Z,8.07
2017-11-12T11:54:05.361Z,7.80
2017-11-12T11:56:31.695Z,9.77
2017-11-12T11:58:58.753Z,9.77
2017-11-12T12:01:25.857Z,9.30
2017-11-12T12:03:52.395Z,10.40
2017-11-12T12:06:18.724Z,8.33
2017-11-12T12:08:45.069Z,7.87
2017-11-12T12:11:12.985Z,9.10
2017-11-12T12:13:39.347Z,7.90
2017-11-12T12:16:05.672Z,9.53
2017-11-12T12:18:32.047Z,9.17
2017-11-12T12:20:59.103Z,7.90
2017-11-12T12:23:26.180Z,6.97
2017-11-12T12:25:52.497Z,7.53
2017-11-12T12:28:19.003Z,8.63
2017-11-12T12:30:47.358Z,6.37
2017-11-12T12:33:14.072Z,5.13
2017-11-12T12:35:40.766Z,5.40
2017-11-12T12:38:07.842Z,5.90
2017-11-12T12:40:34.283Z,5.40
2017-11-12T12:43:00.631Z,5.07
2017-11-12T12:45:26.935Z,4.67
2017-11-12T12:47:53.261Z,5.00
2017-11-12T12:50:19.647Z,5.00
2017-11-12T12:52:46.118Z,5.37
2017-11-12T12:55:12.444Z,5.03
2017-11-12T12:57:38.821Z,3.20
2017-11-12T13:00:05.134Z,3.30
2017-11-12T13:02:31.469Z,2.70
2017-11-12T13:04:57.867Z,3.30
2017-11-12T13:07:24.929Z,2.93
2017-11-12T13:09:51.252Z,2.97
2017-11-12T13:12:17.610Z,2.90
2017-11-12T13:14:44.066Z,2.70
2017-11-12T13:17:10.395Z,2.90
2017-11-12T13:19:37.488Z,3.07
2017-11-12T13:22:04.534Z,1.97
2017-11-12T13:24:30.893Z,2.57
2017-11-12T13:26:57.207Z,2.40
2017-11-12T13:29:23.577Z,2.83
2017-11-12T13:31:50.109Z,2.40
2017-11-12T13:34:17.217Z,2.63
2017-11-12T13:36:43.537Z,2.20
2017-11-12T13:39:10.602Z,2.50
2017-11-12T13:41:36.946Z,2.80
2017-11-12T13:44:03.263Z,2.50
2017-11-12T13:46:29.615Z,2.70
2017-11-12T13:48:56.383Z,3.00
2017-11-12T13:51:22.790Z,2.60
2017-11-12T13:53:49.128Z,3.03
2017-11-12T13:56:15.472Z,2.70
2017-11-12T13:58:41.821Z,2.97
2017-11-12T14:01:08.174Z,3.40
2017-11-12T14:03:35.265Z,3.23
2017-11-12T14:06:01.601Z,3.20
2017-11-12T14:08:27.904Z,2.60
2017-11-12T14:10:54.241Z,2.93
2017-11-12T14:13:20.529Z,2.73
2017-11-12T14:15:47.627Z,2.90
2017-11-12T14:18:13.967Z,3.10
2017-11-12T14:20:40.368Z,2.87
2017-11-12T14:23:06.721Z,2.87
2017-11-12T14:25:33.104Z,3.13
2017-11-12T14:28:00.197Z,2.90
2017-11-12T14:30:26.606Z,2.77
2017-11-12T14:32:52.943Z,2.80
2017-11-12T14:35:19.310Z,2.50
2017-11-12T14:37:45.631Z,2.67
2017-11-12T14:40:11.951Z,2.07
2017-11-12T14:42:38.270Z,2.37
2017-11-12T14:45:05.098Z,3.83
2017-11-12T14:47:31.445Z,5.20
2017-11-12T14:49:57.778Z,2.33
2017-11-12T14:52:24.083Z,2.30
2017-11-12T14:54:51.139Z,3.13
2017-11-12T14:57:17.496Z,3.20
2017-11-12T14:59:44.346Z,2.50
2017-11-12T15:02:10.714Z,3.50
2017-11-12T15:04:37.071Z,2.73
2017-11-12T15:07:04.134Z,3.60
2017-11-12T15:09:30.457Z,2.40
2017-11-12T15:11:57.430Z,2.80
2017-11-12T15:14:23.826Z,3.20
2017-11-12T15:16:51.014Z,4.13
2017-11-12T15:19:17.379Z,3.77
2017-11-12T15:21:43.718Z,3.60
2017-11-12T15:24:10.786Z,3.47
2017-11-12T15:26:38.544Z,4.80
2017-11-12T15:29:05.643Z,4.50
2017-11-12T15:31:31.957Z,4.17
2017-11-12T15:33:58.449Z,3.60
2017-11-12T15:36:25.585Z,3.83
2017-11-12T15:38:52.642Z,3.20
2017-11-12T15:41:19.716Z,3.03
2017-11-12T15:43:46.029Z,3.67
2017-11-12T15:46:13.982Z,2.90
2017-11-12T15:48:40.671Z,3.10
2017-11-12T15:51:07.011Z,2.70
2017-11-12T15:53:33.340Z,3.47
2017-11-12T15:55:59.674Z,2.87
2017-11-12T15:58:26.046Z,2.80
2017-11-12T16:00:53.125Z,3.03
2017-11-12T16:03:19.455Z,3.27
2017-11-12T16:05:45.897Z,2.77
2017-11-12T16:08:12.774Z,2.83
2017-11-12T16:10:39.088Z,3.03
2017-11-12T16:13:05.451Z,2.90
2017-11-12T16:15:31.774Z,3.10
2017-11-12T16:17:58.861Z,3.00
2017-11-12T16:20:25.446Z,3.43
2017-11-12T16:22:51.831Z,3.43
2017-11-12T16:25:18.187Z,3.60
2017-11-12T16:27:44.561Z,3.20
2017-11-12T16:30:10.846Z,3.30
2017-11-12T16:32:37.161Z,3.70
2017-11-12T16:35:03.496Z,4.10
2017-11-12T16:37:29.988Z,3.70
2017-11-12T16:39:56.442Z,3.77
2017-11-12T16:42:22.809Z,3.50
2017-11-12T16:44:49.123Z,3.60
2017-11-12T16:47:15.458Z,3.70
2017-11-12T16:49:41.870Z,4.33
2017-11-12T16:52:08.221Z,4.53
2017-11-12T16:54:34.570Z,4.43
2017-11-12T16:57:01.046Z,4.40
2017-11-12T16:59:27.386Z,4.43
2017-11-12T17:01:54.609Z,4.33
2017-11-12T17:04:20.946Z,4.23
2017-11-12T17:06:47.292Z,4.40
2017-11-12T17:09:13.611Z,4.80
2017-11-12T17:11:40.038Z,4.63
2017-11-12T17:14:06.362Z,4.97
2017-11-12T17:16:32.818Z,4.87
2017-11-12T17:18:59.902Z,4.40
2017-11-12T17:21:26.508Z,4.50
2017-11-12T17:23:53.585Z,4.20
2017-11-12T17:26:19.869Z,4.23
2017-11-12T17:28:46.252Z,4.10
2017-11-12T17:31:13.022Z,3.80
2017-11-12T17:33:39.371Z,3.43
2017-11-12T17:36:06.453Z,3.60
2017-11-12T17:38:32.875Z,3.40
2017-11-12T17:40:59.224Z,3.23
2017-11-12T17:43:25.526Z,3.67
2017-11-12T17:45:53.567Z,3.77
2017-11-12T17:48:19.964Z,3.77
2017-11-12T17:50:46.478Z,2.90
2017-11-12T17:53:12.903Z,3.77
2017-11-12T17:55:40.346Z,3.27
2017-11-12T17:58:07.510Z,3.50
2017-11-12T18:00:34.608Z,3.40
2017-11-12T18:03:00.999Z,4.00
2017-11-12T18:05:27.352Z,3.30
2017-11-12T18:07:54.603Z,3.30
2017-11-12T18:10:20.962Z,3.23
2017-11-12T18:12:47.310Z,3.60
2017-11-12T18:15:13.643Z,2.93
2017-11-12T18:17:40.053Z,2.57
2017-11-12T18:20:06.362Z,2.30
2017-11-12T18:22:32.998Z,2.30
2017-11-12T18:24:59.412Z,2.47
2017-11-12T18:27:25.780Z,2.57
2017-11-12T18:29:52.173Z,2.03
2017-11-12T18:32:18.515Z,1.87
2017-11-12T18:34:44.929Z,2.50
2017-11-12T18:37:12.250Z,3.27
2017-11-12T18:39:39.394Z,3.80
2017-11-12T18:42:06.602Z,3.80
2017-11-12T18:44:33.531Z,3.67
2017-11-12T18:47:00.734Z,4.50
2017-11-12T18:49:27.074Z,4.77
2017-11-12T18:51:53.718Z,5.17
2017-11-12T18:54:22.964Z,5.00
2017-11-12T18:56:52.578Z,5.90
2017-11-12T19:02:23.008Z,6.07
2017-11-12T19:04:49.325Z,6.30
2017-11-12T19:07:19.449Z,6.60
2017-11-12T19:09:45.840Z,6.30
2017-11-12T19:12:12.293Z,6.47
2017-11-12T19:14:38.929Z,5.70
2017-11-12T19:17:05.247Z,6.53
2017-11-12T19:22:34.579Z,6.23
2017-11-12T19:25:01.878Z,5.63
2017-11-12T19:27:30.233Z,6.33
2017-11-12T19:29:58.101Z,6.20
2017-11-12T19:32:24.613Z,6.17
2017-11-12T19:34:51.567Z,6.00
2017-11-12T19:37:18.754Z,4.97
2017-11-12T19:39:45.067Z,5.07
2017-11-12T19:42:11.464Z,5.57
2017-11-12T19:44:38.624Z,5.73
2017-11-12T19:47:06.224Z,4.97
2017-11-12T19:49:32.586Z,4.80
2017-11-12T19:51:59.056Z,5.23
2017-11-12T19:54:25.716Z,5.07
2017-11-12T19:56:52.664Z,4.90
2017-11-12T19:59:19.028Z,6.53
2017-11-12T20:01:45.416Z,5.67
2017-11-12T20:04:11.967Z,5.40
2017-11-12T20:06:39.228Z,6.17
2017-11-12T20:09:05.724Z,5.10
2017-11-12T20:11:32.392Z,5.87
2017-11-12T20:13:58.833Z,5.40
2017-11-12T20:16:25.206Z,6.40
2017-11-12T20:18:51.550Z,6.20
2017-11-12T20:21:18.661Z,5.47
2017-11-12T20:23:45.327Z,6.70
2017-11-12T20:26:11.626Z,5.30
2017-11-12T20:28:38.248Z,6.63
2017-11-12T20:31:04.659Z,7.20
2017-11-12T20:33:31.628Z,5.67
2017-11-12T20:35:58.730Z,5.90
2017-11-12T20:38:26.610Z,5.67
2017-11-12T20:40:52.957Z,5.50
2017-11-12T20:43:19.331Z,5.90
2017-11-12T20:45:45.779Z,6.30
2017-11-12T20:48:12.171Z,5.50
2017-11-12T20:50:39.384Z,5.23
2017-11-12T20:53:05.959Z,6.63
2017-11-12T20:55:32.330Z,5.67
2017-11-12T20:57:59.496Z,4.97
2017-11-12T21:00:29.343Z,5.70
2017-11-12T21:02:55.731Z,5.90
2017-11-12T21:05:25.679Z,5.30
2017-11-12T21:07:52.140Z,6.27
2017-11-12T21:10:18.557Z,6.60
2017-11-12T21:12:45.654Z,6.03
2017-11-12T21:15:12.065Z,5.43
2017-11-12T21:17:38.523Z,5.60
2017-11-12T21:20:08.737Z,5.20
2017-11-12T21:25:39.680Z,5.20
2017-11-12T21:28:09.006Z,5.20
2017-11-12T21:30:37.124Z,6.13
2017-11-12T21:36:16.766Z,5.47
2017-11-12T21:38:43.106Z,6.27
2017-11-12T21:41:09.581Z,5.53
2017-11-12T21:43:39.232Z,6.07
2017-11-12T21:46:06.323Z,4.47
2017-11-12T21:48:32.724Z,5.60
2017-11-12T21:50:59.253Z,5.30
2017-11-12T21:53:25.624Z,5.20
2017-11-12T21:55:52.929Z,6.80
2017-11-12T21:58:20.032Z,5.63
2017-11-12T22:00:46.407Z,5.33
2017-11-12T22:03:13.495Z,5.77
2017-11-12T22:05:39.808Z,6.80
2017-11-12T22:08:06.114Z,5.70
2017-11-12T22:10:33.210Z,6.20
2017-11-12T22:12:59.525Z,6.17
2017-11-12T22:15:26.044Z,6.40
2017-11-12T22:17:52.427Z,7.23
2017-11-12T22:20:18.866Z,7.87
2017-11-12T22:22:45.223Z,6.20
2017-11-12T22:25:12.363Z,7.00
2017-11-12T22:27:38.731Z,7.23
2017-11-12T22:30:05.100Z,6.13
2017-11-12T22:32:31.606Z,7.40
2017-11-12T22:34:57.897Z,6.13
2017-11-12T22:37:24.973Z,6.83
2017-11-12T22:39:51.299Z,6.93
2017-11-12T22:42:17.636Z,6.37
2017-11-12T22:44:44.002Z,7.67
2017-11-12T22:47:10.404Z,7.67
2017-11-12T22:49:36.743Z,6.97
2017-11-12T22:52:03.165Z,7.50
2017-11-12T22:54:29.503Z,7.87
2017-11-12T22:56:55.811Z,7.53
2017-11-12T22:59:22.142Z,6.70
2017-11-12T23:01:48.500Z,7.90
2017-11-12T23:04:14.863Z,7.30
2017-11-12T23:06:41.221Z,6.47
2017-11-12T23:09:08.326Z,7.50
2017-11-12T23:11:34.866Z,7.33
2017-11-12T23:14:01.168Z,7.20
2017-11-12T23:16:27.465Z,6.73
2017-11-12T23:18:54.521Z,8.37
2017-11-12T23:21:21.598Z,7.57
2017-11-12T23:23:47.894Z,7.00
2017-11-12T23:26:14.937Z,7.27
2017-11-12T23:28:41.257Z,8.43
2017-11-12T23:31:08.378Z,7.77
2017-11-12T23:33:34.726Z,8.10
2017-11-12T23:36:02.518Z,8.63
2017-11-12T23:38:28.863Z,8.53
2017-11-12T23:40:55.164Z,8.63
2017-11-12T23:43:22.274Z,7.63
2017-11-12T23:45:48.588Z,8.17
2017-11-12T23:48:14.865Z,7.30
2017-11-12T23:50:41.218Z,7.70
2017-11-12T23:53:07.509Z,7.63
2017-11-12T23:55:33.919Z,7.77
2017-11-12T23:58:00.225Z,8.47
